createdAt,value
2023-02-22T00:00:01.310Z,1005.47
2023-02-22T00:02:34.279Z,1005.45
2023-02-22T00:05:07.455Z,1005.44
2023-02-22T00:07:40.294Z,1005.44
2023-02-22T00:10:13.471Z,1005.43
2023-02-22T00:12:46.677Z,1005.41
2023-02-22T00:15:20.192Z,1005.40
2023-02-22T00:17:53.694Z,1005.39
2023-02-22T00:20:27.430Z,1005.36
2023-02-22T00:23:00.310Z,1005.36
2023-02-22T00:25:33.405Z,1005.35
2023-02-22T00:28:06.354Z,1005.33
2023-02-22T00:30:39.413Z,1005.32
2023-02-22T00:33:12.260Z,1005.29
2023-02-22T00:35:45.425Z,1005.28
2023-02-22T00:38:18.197Z,1005.28
2023-02-22T00:40:51.595Z,1005.27
2023-02-22T00:43:24.520Z,1005.25
2023-02-22T00:45:57.357Z,1005.24
2023-02-22T00:48:30.344Z,1005.23
2023-02-22T00:51:03.512Z,1005.21
2023-02-22T00:53:36.605Z,1005.21
2023-02-22T00:56:09.775Z,1005.19
2023-02-22T00:58:43.642Z,1005.19
2023-02-22T01:01:17.010Z,1005.18
2023-02-22T01:03:49.574Z,1005.16
2023-02-22T01:06:22.302Z,1005.16
2023-02-22T01:08:55.394Z,1005.16
2023-02-22T01:11:28.570Z,1005.14
2023-02-22T01:14:01.629Z,1005.14
2023-02-22T01:16:34.611Z,1005.10
2023-02-22T01:19:07.419Z,1005.10
2023-02-22T01:21:40.559Z,1005.08
2023-02-22T01:24:13.371Z,1005.06
2023-02-22T01:26:46.681Z,1005.05
2023-02-22T01:29:19.292Z,1005.04
2023-02-22T01:31:52.695Z,1005.01
2023-02-22T01:34:25.733Z,1005.01
2023-02-22T01:36:58.445Z,1004.99
2023-02-22T01:39:31.979Z,1004.97
2023-02-22T01:42:05.469Z,1004.93
2023-02-22T01:44:38.487Z,1004.91
2023-02-22T01:47:11.420Z,1004.89
2023-02-22T01:49:44.503Z,1004.88
2023-02-22T01:52:17.716Z,1004.86
2023-02-22T01:54:50.648Z,1004.84
2023-02-22T01:57:23.366Z,1004.83
2023-02-22T01:59:56.391Z,1004.82
2023-02-22T02:02:29.900Z,1004.79
2023-02-22T02:05:03.515Z,1004.76
2023-02-22T02:07:36.674Z,1004.74
2023-02-22T02:10:09.465Z,1004.73
2023-02-22T02:12:42.754Z,1004.72
2023-02-22T02:15:15.533Z,1004.70
2023-02-22T02:17:48.509Z,1004.65
2023-02-22T02:20:21.340Z,1004.62
2023-02-22T02:22:54.741Z,1004.59
2023-02-22T02:25:27.367Z,1004.58
2023-02-22T02:28:00.578Z,1004.57
2023-02-22T02:30:33.808Z,1004.56
2023-02-22T02:33:06.397Z,1004.53
2023-02-22T02:35:39.667Z,1004.52
2023-02-22T02:38:12.430Z,1004.49
2023-02-22T02:40:45.699Z,1004.46
2023-02-22T02:43:18.581Z,1004.44
2023-02-22T02:45:51.485Z,1004.44
2023-02-22T02:48:24.667Z,1004.42
2023-02-22T02:50:57.684Z,1004.42
2023-02-22T02:53:30.566Z,1004.42
2023-02-22T02:56:03.796Z,1004.40
2023-02-22T02:58:36.839Z,1004.41
2023-02-22T03:01:09.682Z,1004.41
2023-02-22T03:03:42.754Z,1004.40
2023-02-22T03:06:15.876Z,1004.38
2023-02-22T03:08:49.556Z,1004.36
2023-02-22T03:11:22.495Z,1004.33
2023-02-22T03:13:55.813Z,1004.30
2023-02-22T03:16:28.679Z,1004.27
2023-02-22T03:19:01.861Z,1004.25
2023-02-22T03:21:34.438Z,1004.24
2023-02-22T03:24:07.800Z,1004.22
2023-02-22T03:26:40.609Z,1004.22
2023-02-22T03:29:13.635Z,1004.22
2023-02-22T03:31:46.503Z,1004.20
2023-02-22T03:34:19.510Z,1004.19
2023-02-22T03:36:52.813Z,1004.18
2023-02-22T03:39:26.054Z,1004.17
2023-02-22T03:41:59.583Z,1004.15
2023-02-22T03:44:32.846Z,1004.14
2023-02-22T03:47:05.870Z,1004.13
2023-02-22T03:49:39.024Z,1004.12
2023-02-22T03:52:12.637Z,1004.12
2023-02-22T03:54:45.866Z,1004.12
2023-02-22T03:57:18.861Z,1004.12
2023-02-22T03:59:51.924Z,1004.09
2023-02-22T04:02:24.946Z,1004.09
2023-02-22T04:04:59.117Z,1004.08
2023-02-22T04:07:32.541Z,1004.07
2023-02-22T04:10:05.803Z,1004.07
2023-02-22T04:12:38.861Z,1004.06
2023-02-22T04:15:11.929Z,1004.06
2023-02-22T04:17:44.739Z,1004.06
2023-02-22T04:20:17.574Z,1004.05
2023-02-22T04:22:51.080Z,1004.05
2023-02-22T04:25:24.976Z,1004.04
2023-02-22T04:27:57.798Z,1004.03
2023-02-22T04:30:30.575Z,1004.03
2023-02-22T04:33:03.718Z,1004.03
2023-02-22T04:35:36.948Z,1004.03
2023-02-22T04:38:09.697Z,1004.03
2023-02-22T04:40:42.716Z,1004.01
2023-02-22T04:43:15.797Z,1004.01
2023-02-22T04:45:48.862Z,1004.01
2023-02-22T04:48:21.675Z,1004.00
2023-02-22T04:50:54.752Z,1004.01
2023-02-22T04:53:27.758Z,1004.02
2023-02-22T04:56:00.702Z,1004.02
2023-02-22T04:58:33.596Z,1004.02
2023-02-22T05:01:06.669Z,1004.03
2023-02-22T05:03:39.644Z,1004.02
2023-02-22T05:06:12.954Z,1004.00
2023-02-22T05:08:45.653Z,1003.98
2023-02-22T05:11:19.057Z,1003.97
2023-02-22T05:13:51.728Z,1003.96
2023-02-22T05:16:24.805Z,1003.94
2023-02-22T05:18:57.755Z,1003.93
2023-02-22T05:21:30.906Z,1003.91
2023-02-22T05:24:04.000Z,1003.90
2023-02-22T05:26:36.687Z,1003.90
2023-02-22T05:29:09.800Z,1003.88
2023-02-22T05:31:42.992Z,1003.88
2023-02-22T05:34:15.932Z,1003.87
2023-02-22T05:36:48.846Z,1003.86
2023-02-22T05:39:21.663Z,1003.86
2023-02-22T05:41:54.817Z,1003.85
2023-02-22T05:44:28.028Z,1003.84
2023-02-22T05:47:00.888Z,1003.83
2023-02-22T05:49:33.671Z,1003.83
2023-02-22T05:52:06.828Z,1003.83
2023-02-22T05:54:39.940Z,1003.83
2023-02-22T05:57:12.827Z,1003.84
2023-02-22T05:59:45.957Z,1003.85
2023-02-22T06:02:18.900Z,1003.85
2023-02-22T06:04:51.797Z,1003.88
2023-02-22T06:07:25.098Z,1003.90
2023-02-22T06:09:57.933Z,1003.90
2023-02-22T06:12:30.792Z,1003.90
2023-02-22T06:15:04.018Z,1003.88
2023-02-22T06:17:36.762Z,1003.87
2023-02-22T06:20:09.824Z,1003.87
2023-02-22T06:22:42.723Z,1003.88
2023-02-22T06:25:15.899Z,1003.89
2023-02-22T06:27:48.892Z,1003.89
2023-02-22T06:30:21.829Z,1003.89
2023-02-22T06:32:54.965Z,1003.90
2023-02-22T06:35:27.756Z,1003.92
2023-02-22T06:38:01.127Z,1003.94
2023-02-22T06:40:34.993Z,1003.94
2023-02-22T06:43:07.983Z,1003.98
2023-02-22T06:45:40.827Z,1004.00
2023-02-22T06:48:14.044Z,1004.01
2023-02-22T06:50:46.880Z,1004.03
2023-02-22T06:53:19.917Z,1004.03
2023-02-22T06:55:52.848Z,1004.06
2023-02-22T06:58:27.869Z,1004.07
2023-02-22T07:01:01.189Z,1004.09
2023-02-22T07:03:34.954Z,1004.11
2023-02-22T07:06:07.831Z,1004.12
2023-02-22T07:08:40.813Z,1004.13
2023-02-22T07:11:13.845Z,1004.15
2023-02-22T07:13:47.138Z,1004.17
2023-02-22T07:16:20.193Z,1004.20
2023-02-22T07:18:52.906Z,1004.24
2023-02-22T07:21:28.732Z,1004.26
2023-02-22T07:24:03.977Z,1004.30
2023-02-22T07:26:34.973Z,1004.33
2023-02-22T07:29:07.954Z,1004.35
2023-02-22T07:31:40.947Z,1004.38
2023-02-22T07:34:13.966Z,1004.39
2023-02-22T07:36:47.642Z,1004.42
2023-02-22T07:39:21.211Z,1004.44
2023-02-22T07:41:54.114Z,1004.45
2023-02-22T07:44:27.375Z,1004.46
2023-02-22T07:47:01.205Z,1004.47
2023-02-22T07:49:33.992Z,1004.46
2023-02-22T07:52:06.917Z,1004.48
2023-02-22T07:54:40.161Z,1004.47
2023-02-22T07:57:13.033Z,1004.45
2023-02-22T07:59:45.881Z,1004.44
2023-02-22T08:02:19.165Z,1004.44
2023-02-22T08:04:52.336Z,1004.43
2023-02-22T08:07:25.933Z,1004.41
2023-02-22T08:09:59.003Z,1004.39
2023-02-22T08:12:32.044Z,1004.39
2023-02-22T08:15:04.994Z,1004.37
2023-02-22T08:17:38.035Z,1004.36
2023-02-22T08:20:11.303Z,1004.36
2023-02-22T08:22:43.892Z,1004.35
2023-02-22T08:25:17.024Z,1004.35
2023-02-22T08:27:49.937Z,1004.32
2023-02-22T08:30:23.129Z,1004.32
2023-02-22T08:32:56.182Z,1004.32
2023-02-22T08:35:29.061Z,1004.32
2023-02-22T08:38:01.991Z,1004.34
2023-02-22T08:40:35.155Z,1004.35
2023-02-22T08:43:08.261Z,1004.35
2023-02-22T08:45:41.011Z,1004.35
2023-02-22T08:48:14.262Z,1004.36
2023-02-22T08:50:47.245Z,1004.36
2023-02-22T08:53:20.249Z,1004.39
2023-02-22T08:55:53.062Z,1004.39
2023-02-22T08:58:26.180Z,1004.39
2023-02-22T09:00:59.291Z,1004.39
2023-02-22T09:03:32.368Z,1004.39
2023-02-22T09:06:05.203Z,1004.38
2023-02-22T09:08:38.328Z,1004.38
2023-02-22T09:11:11.159Z,1004.38
2023-02-22T09:13:44.307Z,1004.38
2023-02-22T09:16:17.086Z,1004.39
2023-02-22T09:18:50.285Z,1004.39
2023-02-22T09:21:23.049Z,1004.38
2023-02-22T09:23:56.210Z,1004.38
2023-02-22T09:26:29.464Z,1004.37
2023-02-22T09:29:03.222Z,1004.35
2023-02-22T09:31:36.233Z,1004.33
2023-02-22T09:34:09.384Z,1004.31
2023-02-22T09:36:42.461Z,1004.29
2023-02-22T09:39:15.162Z,1004.26
2023-02-22T09:41:48.183Z,1004.23
2023-02-22T09:44:21.457Z,1004.22
2023-02-22T09:46:55.123Z,1004.18
2023-02-22T09:49:28.543Z,1004.16
2023-02-22T09:52:06.101Z,1004.14
2023-02-22T09:54:39.429Z,1004.11
2023-02-22T09:57:12.106Z,1004.09
2023-02-22T09:59:45.036Z,1004.07
2023-02-22T10:02:19.667Z,1004.05
2023-02-22T10:04:55.725Z,1004.03
2023-02-22T10:07:29.409Z,1004.01
2023-02-22T10:10:02.169Z,1003.99
2023-02-22T10:12:35.442Z,1003.97
2023-02-22T10:15:08.281Z,1003.93
2023-02-22T10:17:41.276Z,1003.92
2023-02-22T10:20:14.421Z,1003.89
2023-02-22T10:22:47.397Z,1003.87
2023-02-22T10:25:20.570Z,1003.86
2023-02-22T10:27:54.086Z,1003.86
2023-02-22T10:30:27.186Z,1003.83
2023-02-22T10:33:00.418Z,1003.83
2023-02-22T10:35:33.603Z,1003.82
2023-02-22T10:38:07.472Z,1003.80
2023-02-22T10:40:40.386Z,1003.80
2023-02-22T10:43:13.476Z,1003.78
2023-02-22T10:45:46.334Z,1003.76
2023-02-22T10:48:33.116Z,1003.75
2023-02-22T10:51:06.491Z,1003.73
2023-02-22T10:53:39.309Z,1003.71
2023-02-22T10:56:12.667Z,1003.71
2023-02-22T10:58:46.343Z,1003.69
2023-02-22T11:01:19.775Z,1003.68
2023-02-22T11:03:52.438Z,1003.66
2023-02-22T11:06:25.589Z,1003.66
2023-02-22T11:08:58.590Z,1003.64
2023-02-22T11:11:31.467Z,1003.62
2023-02-22T11:14:04.264Z,1003.59
2023-02-22T11:16:37.310Z,1003.57
2023-02-22T11:19:10.410Z,1003.56
2023-02-22T11:21:44.163Z,1003.55
2023-02-22T11:24:20.368Z,1003.52
2023-02-22T11:26:53.179Z,1003.51
2023-02-22T11:29:26.541Z,1003.48
2023-02-22T11:31:59.361Z,1003.46
2023-02-22T11:34:32.251Z,1003.44
2023-02-22T11:37:05.453Z,1003.42
2023-02-22T11:39:38.431Z,1003.41
2023-02-22T11:42:11.314Z,1003.40
2023-02-22T11:44:44.651Z,1003.36
2023-02-22T11:47:18.312Z,1003.33
2023-02-22T11:49:51.480Z,1003.30
2023-02-22T11:52:26.154Z,1003.26
2023-02-22T11:54:57.574Z,1003.23
2023-02-22T11:57:30.461Z,1003.22
2023-02-22T12:00:03.508Z,1003.18
2023-02-22T12:02:37.473Z,1003.14
2023-02-22T12:05:09.416Z,1003.10
2023-02-22T12:07:42.429Z,1003.08
2023-02-22T12:10:15.552Z,1003.05
2023-02-22T12:12:48.312Z,1003.03
2023-02-22T12:15:21.252Z,1002.98
2023-02-22T12:17:59.731Z,1002.94
2023-02-22T12:20:27.512Z,1002.92
2023-02-22T12:23:00.571Z,1002.89
2023-02-22T12:25:33.572Z,1002.85
2023-02-22T12:28:15.631Z,1002.83
2023-02-22T12:30:39.329Z,1002.81
2023-02-22T12:33:12.379Z,1002.78
2023-02-22T12:35:45.676Z,1002.75
2023-02-22T12:38:18.348Z,1002.73
2023-02-22T12:40:51.527Z,1002.70
2023-02-22T12:43:24.294Z,1002.68
2023-02-22T12:45:57.316Z,1002.65
2023-02-22T12:48:30.666Z,1002.65
2023-02-22T12:51:03.330Z,1002.63
2023-02-22T12:53:36.541Z,1002.61
2023-02-22T12:56:09.522Z,1002.59
2023-02-22T12:58:42.588Z,1002.58
2023-02-22T13:01:16.169Z,1002.57
2023-02-22T13:03:48.719Z,1002.57
2023-02-22T13:06:21.371Z,1002.55
2023-02-22T13:08:54.354Z,1002.54
2023-02-22T13:11:27.473Z,1002.52
2023-02-22T13:14:00.480Z,1002.50
2023-02-22T13:16:33.518Z,1002.47
2023-02-22T13:19:06.396Z,1002.46
2023-02-22T13:21:39.383Z,1002.44
2023-02-22T13:24:12.614Z,1002.43
2023-02-22T13:26:45.499Z,1002.42
2023-02-22T13:29:18.370Z,1002.41
2023-02-22T13:31:51.868Z,1002.40
2023-02-22T13:34:24.384Z,1002.38
2023-02-22T13:36:57.402Z,1002.35
2023-02-22T13:39:30.557Z,1002.32
2023-02-22T13:42:03.782Z,1002.32
2023-02-22T13:44:36.702Z,1002.29
2023-02-22T13:47:09.508Z,1002.27
2023-02-22T13:49:48.537Z,1002.26
2023-02-22T13:52:21.413Z,1002.24
2023-02-22T13:54:54.840Z,1002.23
2023-02-22T13:57:27.771Z,1002.22
2023-02-22T14:00:00.407Z,1002.21
2023-02-22T14:02:33.499Z,1002.20
2023-02-22T14:05:06.608Z,1002.20
2023-02-22T14:07:39.631Z,1002.18
2023-02-22T14:10:12.904Z,1002.15
2023-02-22T14:12:46.565Z,1002.12
2023-02-22T14:15:29.050Z,1002.10
2023-02-22T14:17:52.613Z,1002.07
2023-02-22T14:20:25.991Z,1002.04
2023-02-22T14:22:59.609Z,1002.00
2023-02-22T14:25:32.577Z,1001.99
2023-02-22T14:28:05.586Z,1001.95
2023-02-22T14:30:38.709Z,1001.93
2023-02-22T14:33:11.584Z,1001.92
2023-02-22T14:35:50.140Z,1001.92
2023-02-22T14:38:17.469Z,1001.91
2023-02-22T14:40:50.511Z,1001.90
2023-02-22T14:43:23.598Z,1001.89
2023-02-22T14:45:56.615Z,1001.86
2023-02-22T14:48:29.519Z,1001.84
2023-02-22T14:51:11.729Z,1001.83
2023-02-22T14:53:35.499Z,1001.82
2023-02-22T14:56:11.598Z,1001.84
2023-02-22T14:58:44.820Z,1001.84
2023-02-22T15:01:18.053Z,1001.85
2023-02-22T15:04:01.979Z,1001.84
2023-02-22T15:06:23.690Z,1001.84
2023-02-22T15:08:56.654Z,1001.84
2023-02-22T15:11:29.969Z,1001.85
2023-02-22T15:14:04.542Z,1001.84
2023-02-22T15:16:36.698Z,1001.84
2023-02-22T15:19:09.560Z,1001.83
2023-02-22T15:21:45.710Z,1001.82
2023-02-22T15:24:18.536Z,1001.82
2023-02-22T15:27:01.956Z,1001.81
2023-02-22T15:29:25.756Z,1001.80
2023-02-22T15:31:58.823Z,1001.81
2023-02-22T15:34:31.624Z,1001.80
2023-02-22T15:37:06.628Z,1001.80
2023-02-22T15:39:37.774Z,1001.80
2023-02-22T15:42:10.687Z,1001.80
2023-02-22T15:44:43.794Z,1001.81
2023-02-22T15:47:16.598Z,1001.81
2023-02-22T15:49:49.838Z,1001.80
2023-02-22T15:52:22.846Z,1001.80
2023-02-22T15:54:55.583Z,1001.81
2023-02-22T15:57:28.581Z,1001.81
2023-02-22T16:00:01.624Z,1001.80
2023-02-22T16:02:34.996Z,1001.81
2023-02-22T16:05:07.602Z,1001.80
2023-02-22T16:07:42.061Z,1001.81
2023-02-22T16:10:13.656Z,1001.83
2023-02-22T16:12:46.768Z,1001.85
2023-02-22T16:15:19.641Z,1001.86
2023-02-22T16:18:02.011Z,1001.86
2023-02-22T16:20:25.636Z,1001.86
2023-02-22T16:22:58.685Z,1001.85
2023-02-22T16:25:31.922Z,1001.85
2023-02-22T16:28:04.639Z,1001.86
2023-02-22T16:30:38.034Z,1001.86
2023-02-22T16:33:10.679Z,1001.86
2023-02-22T16:35:43.632Z,1001.85
2023-02-22T16:38:17.200Z,1001.84
2023-02-22T16:40:49.708Z,1001.84
2023-02-22T16:43:22.862Z,1001.84
2023-02-22T16:45:55.946Z,1001.85
2023-02-22T16:48:28.875Z,1001.87
2023-02-22T16:51:01.705Z,1001.88
2023-02-22T16:53:34.678Z,1001.90
2023-02-22T16:56:07.833Z,1001.91
2023-02-22T16:58:41.234Z,1001.93
2023-02-22T17:01:14.912Z,1001.95
2023-02-22T17:03:47.908Z,1001.96
2023-02-22T17:06:20.999Z,1001.97
2023-02-22T17:08:54.028Z,1001.98
2023-02-22T17:11:26.930Z,1002.01
2023-02-22T17:13:59.992Z,1002.02
2023-02-22T17:16:32.904Z,1002.04
2023-02-22T17:19:05.716Z,1002.06
2023-02-22T17:21:38.893Z,1002.08
2023-02-22T17:24:11.735Z,1002.11
2023-02-22T17:26:45.071Z,1002.12
2023-02-22T17:29:18.004Z,1002.14
2023-02-22T17:31:50.984Z,1002.16
2023-02-22T17:34:23.725Z,1002.18
2023-02-22T17:36:57.136Z,1002.20
2023-02-22T17:39:29.999Z,1002.23
2023-02-22T17:42:03.212Z,1002.26
2023-02-22T17:44:36.858Z,1002.28
2023-02-22T17:47:10.136Z,1002.30
2023-02-22T17:49:43.113Z,1002.31
2023-02-22T17:52:16.108Z,1002.34
2023-02-22T17:54:49.364Z,1002.37
2023-02-22T17:57:22.914Z,1002.39
2023-02-22T17:59:56.304Z,1002.41
2023-02-22T18:02:30.066Z,1002.43
2023-02-22T18:05:02.809Z,1002.44
2023-02-22T18:07:35.926Z,1002.45
2023-02-22T18:10:08.800Z,1002.48
2023-02-22T18:12:41.795Z,1002.48
2023-02-22T18:15:15.146Z,1002.46
2023-02-22T18:17:48.170Z,1002.45
2023-02-22T18:20:20.920Z,1002.46
2023-02-22T18:22:53.816Z,1002.47
2023-02-22T18:25:27.125Z,1002.47
2023-02-22T18:28:00.162Z,1002.47
2023-02-22T18:30:33.012Z,1002.45
2023-02-22T18:33:05.981Z,1002.43
2023-02-22T18:35:39.156Z,1002.44
2023-02-22T18:38:12.439Z,1002.44
2023-02-22T18:40:45.106Z,1002.43
2023-02-22T18:43:18.198Z,1002.42
2023-02-22T18:45:50.947Z,1002.43
2023-02-22T18:48:23.876Z,1002.43
2023-02-22T18:50:56.842Z,1002.43
2023-02-22T18:53:29.861Z,1002.43
2023-02-22T18:56:08.754Z,1002.45
2023-02-22T18:58:41.878Z,1002.46
2023-02-22T19:01:14.859Z,1002.48
2023-02-22T19:03:48.197Z,1002.49
2023-02-22T19:06:21.213Z,1002.46
2023-02-22T19:08:54.210Z,1002.46
2023-02-22T19:11:27.016Z,1002.45
2023-02-22T19:14:00.085Z,1002.44
2023-02-22T19:16:33.434Z,1002.43
2023-02-22T19:19:05.932Z,1002.42
2023-02-22T19:21:39.036Z,1002.42
2023-02-22T19:24:12.169Z,1002.42
2023-02-22T19:26:45.047Z,1002.42
2023-02-22T19:29:18.181Z,1002.41
2023-02-22T19:31:51.487Z,1002.39
2023-02-22T19:34:24.344Z,1002.39
2023-02-22T19:36:57.303Z,1002.39
2023-02-22T19:39:30.109Z,1002.39
2023-02-22T19:42:03.065Z,1002.39
2023-02-22T19:44:35.983Z,1002.40
2023-02-22T19:47:09.174Z,1002.39
2023-02-22T19:49:42.144Z,1002.40
2023-02-22T19:52:15.211Z,1002.40
2023-02-22T19:54:48.099Z,1002.41
2023-02-22T19:57:20.945Z,1002.41
2023-02-22T19:59:54.246Z,1002.42
2023-02-22T20:02:27.270Z,1002.41
2023-02-22T20:05:00.136Z,1002.41
2023-02-22T20:07:33.139Z,1002.41
2023-02-22T20:10:06.086Z,1002.41
2023-02-22T20:12:39.106Z,1002.42
2023-02-22T20:15:12.318Z,1002.42
2023-02-22T20:17:45.039Z,1002.43
2023-02-22T20:20:18.048Z,1002.44
2023-02-22T20:22:51.163Z,1002.46
2023-02-22T20:25:24.078Z,1002.47
2023-02-22T20:27:57.002Z,1002.47
2023-02-22T20:30:30.149Z,1002.50
2023-02-22T20:33:03.508Z,1002.51
2023-02-22T20:35:36.319Z,1002.52
2023-02-22T20:38:09.077Z,1002.54
2023-02-22T20:40:42.179Z,1002.55
2023-02-22T20:43:15.026Z,1002.56
2023-02-22T20:45:48.343Z,1002.55
2023-02-22T20:48:21.038Z,1002.57
2023-02-22T20:50:54.408Z,1002.57
2023-02-22T20:53:27.378Z,1002.59
2023-02-22T20:56:00.044Z,1002.59
2023-02-22T20:58:33.470Z,1002.59
2023-02-22T21:01:07.338Z,1002.60
2023-02-22T21:03:40.390Z,1002.61
2023-02-22T21:06:13.098Z,1002.60
2023-02-22T21:08:46.299Z,1002.62
2023-02-22T21:11:19.561Z,1002.62
2023-02-22T21:13:52.330Z,1002.62
2023-02-22T21:16:25.346Z,1002.62
2023-02-22T21:18:58.186Z,1002.60
2023-02-22T21:21:31.411Z,1002.60
2023-02-22T21:24:04.071Z,1002.61
2023-02-22T21:26:37.129Z,1002.62
2023-02-22T21:29:10.190Z,1002.63
2023-02-22T21:31:43.583Z,1002.63
2023-02-22T21:34:16.080Z,1002.65
2023-02-22T21:36:49.479Z,1002.66
2023-02-22T21:39:22.107Z,1002.66
2023-02-22T21:41:55.199Z,1002.68
2023-02-22T21:44:28.278Z,1002.68
2023-02-22T21:47:01.444Z,1002.69
2023-02-22T21:49:34.286Z,1002.69
2023-02-22T21:52:07.338Z,1002.69
2023-02-22T21:54:40.445Z,1002.71
2023-02-22T21:57:13.209Z,1002.71
2023-02-22T21:59:46.477Z,1002.72
2023-02-22T22:02:23.267Z,1002.72
2023-02-22T22:04:56.491Z,1002.71
2023-02-22T22:07:29.454Z,1002.70
2023-02-22T22:10:02.533Z,1002.70
2023-02-22T22:12:39.411Z,1002.69
2023-02-22T22:15:08.646Z,1002.67
2023-02-22T22:17:42.510Z,1002.66
2023-02-22T22:20:15.408Z,1002.65
2023-02-22T22:22:48.590Z,1002.63
2023-02-22T22:25:21.186Z,1002.60
2023-02-22T22:27:54.438Z,1002.58
2023-02-22T22:30:27.463Z,1002.56
2023-02-22T22:33:00.606Z,1002.55
2023-02-22T22:35:33.749Z,1002.55
2023-02-22T22:38:07.540Z,1002.54
2023-02-22T22:40:40.539Z,1002.55
2023-02-22T22:43:14.353Z,1002.56
2023-02-22T22:45:47.428Z,1002.58
2023-02-22T22:48:20.208Z,1002.58
2023-02-22T22:50:53.524Z,1002.60
2023-02-22T22:53:26.564Z,1002.61
2023-02-22T22:55:59.349Z,1002.61
2023-02-22T22:58:32.327Z,1002.63
2023-02-22T23:01:05.312Z,1002.64
2023-02-22T23:03:38.817Z,1002.63
2023-02-22T23:06:11.649Z,1002.62
2023-02-22T23:08:44.412Z,1002.62
2023-02-22T23:11:17.909Z,1002.64
2023-02-22T23:13:50.684Z,1002.64
2023-02-22T23:16:24.582Z,1002.66
2023-02-22T23:18:57.638Z,1002.66
2023-02-22T23:21:30.522Z,1002.67
2023-02-22T23:24:03.385Z,1002.68
2023-02-22T23:26:36.310Z,1002.69
2023-02-22T23:29:09.546Z,1002.71
2023-02-22T23:31:42.749Z,1002.72
2023-02-22T23:34:15.601Z,1002.72
2023-02-22T23:36:48.621Z,1002.72
2023-02-22T23:39:21.350Z,1002.73
2023-02-22T23:41:54.454Z,1002.73
2023-02-22T23:44:27.396Z,1002.75
2023-02-22T23:47:00.700Z,1002.75
2023-02-22T23:49:33.473Z,1002.74
2023-02-22T23:52:06.791Z,1002.72
2023-02-22T23:54:40.714Z,1002.72
2023-02-22T23:57:13.303Z,1002.72
2023-02-22T23:59:46.498Z,1002.70
